createdAt,value
2023-05-21T00:00:10.844Z,18.50
2023-05-21T00:02:40.762Z,18.40
2023-05-21T00:05:14.768Z,18.40
2023-05-21T00:07:43.360Z,18.40
2023-05-21T00:10:12.044Z,18.40
2023-05-21T00:12:41.745Z,18.40
2023-05-21T00:15:11.178Z,18.40
2023-05-21T00:17:40.124Z,18.40
2023-05-21T00:20:10.892Z,18.40
2023-05-21T00:22:40.346Z,18.40
2023-05-21T00:25:09.349Z,18.40
2023-05-21T00:27:37.696Z,18.40
2023-05-21T00:30:07.251Z,18.30
2023-05-21T00:32:35.575Z,18.40
2023-05-21T00:35:04.063Z,18.40
2023-05-21T00:37:34.552Z,18.40
2023-05-21T00:40:04.842Z,18.30
2023-05-21T00:42:33.794Z,18.30
2023-05-21T00:45:03.768Z,18.30
2023-05-21T00:47:32.691Z,18.30
2023-05-21T00:50:03.607Z,18.30
2023-05-21T00:52:33.560Z,18.30
2023-05-21T00:55:01.971Z,18.30
2023-05-21T00:57:33.372Z,18.30
2023-05-21T01:00:01.882Z,18.30
2023-05-21T01:02:33.174Z,18.30
2023-05-21T01:05:01.814Z,18.30
2023-05-21T01:07:30.665Z,18.30
2023-05-21T01:10:00.471Z,18.30
2023-05-21T01:12:30.146Z,18.30
2023-05-21T01:14:59.406Z,18.30
2023-05-21T01:17:29.599Z,18.20
2023-05-21T01:19:59.438Z,18.20
2023-05-21T01:22:30.365Z,18.20
2023-05-21T01:25:02.872Z,18.20
2023-05-21T01:27:31.649Z,18.20
2023-05-21T01:30:02.708Z,18.20
2023-05-21T01:32:39.602Z,18.20
2023-05-21T01:35:12.295Z,18.20
2023-05-21T01:37:50.014Z,18.20
2023-05-21T01:40:42.786Z,18.20
2023-05-21T01:43:12.241Z,18.20
2023-05-21T01:45:43.665Z,18.20
2023-05-21T01:48:13.281Z,18.20
2023-05-21T01:50:43.141Z,18.20
2023-05-21T01:53:11.540Z,18.20
2023-05-21T01:55:41.950Z,18.10
2023-05-21T01:58:10.596Z,18.10
2023-05-21T02:00:40.050Z,18.20
2023-05-21T02:03:08.932Z,18.20
2023-05-21T02:05:37.934Z,18.10
2023-05-21T02:08:08.457Z,18.10
2023-05-21T02:10:37.167Z,18.10
2023-05-21T02:13:07.002Z,18.10
2023-05-21T02:15:35.634Z,18.10
2023-05-21T02:18:04.678Z,18.10
2023-05-21T02:20:33.891Z,18.10
2023-05-21T02:23:02.235Z,18.10
2023-05-21T02:25:30.587Z,18.10
2023-05-21T02:27:59.518Z,18.10
2023-05-21T02:30:29.407Z,18.10
2023-05-21T02:32:58.946Z,18.10
2023-05-21T02:35:27.712Z,18.10
2023-05-21T02:37:59.099Z,18.10
2023-05-21T02:40:27.804Z,18.10
2023-05-21T02:42:56.283Z,18.00
2023-05-21T02:45:25.794Z,18.00
2023-05-21T02:47:56.135Z,18.00
2023-05-21T02:50:24.881Z,18.00
2023-05-21T02:52:59.719Z,18.10
2023-05-21T02:55:28.364Z,18.10
2023-05-21T02:57:57.235Z,18.00
2023-05-21T03:00:25.566Z,18.00
2023-05-21T03:02:55.366Z,18.00
2023-05-21T03:05:24.541Z,18.00
2023-05-21T03:07:53.400Z,18.00
2023-05-21T03:10:22.476Z,17.90
2023-05-21T03:12:53.530Z,18.00
2023-05-21T03:15:24.294Z,18.00
2023-05-21T03:17:54.325Z,17.90
2023-05-21T03:20:28.055Z,18.00
2023-05-21T03:22:56.992Z,17.90
2023-05-21T03:25:25.442Z,17.90
2023-05-21T03:27:55.705Z,17.90
2023-05-21T03:30:51.090Z,17.90
2023-05-21T03:33:38.201Z,17.90
2023-05-21T03:36:28.157Z,17.90
2023-05-21T03:38:58.224Z,17.80
2023-05-21T03:41:26.741Z,17.90
2023-05-21T03:44:06.573Z,17.90
2023-05-21T03:46:47.434Z,17.80
2023-05-21T03:49:23.453Z,17.90
2023-05-21T03:51:56.245Z,17.80
2023-05-21T03:54:25.772Z,17.80
2023-05-21T03:56:57.913Z,17.80
2023-05-21T03:59:28.844Z,17.80
2023-05-21T04:01:57.597Z,17.80
2023-05-21T04:04:26.076Z,17.80
2023-05-21T04:06:55.840Z,17.80
2023-05-21T04:09:24.661Z,17.80
2023-05-21T04:11:53.934Z,17.80
2023-05-21T04:14:23.695Z,17.70
2023-05-21T04:16:53.895Z,17.80
2023-05-21T04:19:23.321Z,17.80
2023-05-21T04:21:52.251Z,17.80
2023-05-21T04:24:22.588Z,17.70
2023-05-21T04:27:01.440Z,17.80
2023-05-21T04:29:31.853Z,17.80
2023-05-21T04:32:00.570Z,17.80
2023-05-21T04:34:29.772Z,17.70
2023-05-21T04:36:58.629Z,17.70
2023-05-21T04:39:28.728Z,17.80
2023-05-21T04:41:57.122Z,17.70
2023-05-21T04:44:26.642Z,17.70
2023-05-21T04:46:57.587Z,17.70
2023-05-21T04:49:26.716Z,17.70
2023-05-21T04:51:55.149Z,17.70
2023-05-21T04:54:24.079Z,17.70
2023-05-21T04:56:54.024Z,17.70
2023-05-21T04:59:22.937Z,17.60
2023-05-21T05:01:51.411Z,17.70
2023-05-21T05:04:19.897Z,17.60
2023-05-21T05:06:48.386Z,17.60
2023-05-21T05:09:16.864Z,17.70
2023-05-21T05:11:45.316Z,17.70
2023-05-21T05:14:15.112Z,17.70
2023-05-21T05:16:48.195Z,17.70
2023-05-21T05:19:17.906Z,17.70
2023-05-21T05:21:46.474Z,17.70
2023-05-21T05:24:16.267Z,17.70
2023-05-21T05:26:45.200Z,17.70
2023-05-21T05:29:15.187Z,17.70
2023-05-21T05:31:43.796Z,17.70
2023-05-21T05:34:12.421Z,17.70
2023-05-21T05:36:40.912Z,17.70
2023-05-21T05:39:10.285Z,17.70
2023-05-21T05:41:39.465Z,17.70
2023-05-21T05:44:10.230Z,17.80
2023-05-21T05:46:40.839Z,17.80
2023-05-21T05:49:09.872Z,17.80
2023-05-21T05:51:38.451Z,17.80
2023-05-21T05:54:07.378Z,17.80
2023-05-21T05:56:37.518Z,17.80
2023-05-21T05:59:07.120Z,17.80
2023-05-21T06:01:38.587Z,17.80
2023-05-21T06:04:09.449Z,17.80
2023-05-21T06:06:38.868Z,17.80
2023-05-21T06:09:07.602Z,17.80
2023-05-21T06:11:36.377Z,17.80
2023-05-21T06:14:05.455Z,17.80
2023-05-21T06:16:34.583Z,17.90
2023-05-21T06:19:03.159Z,17.80
2023-05-21T06:21:33.042Z,17.80
2023-05-21T06:24:01.513Z,17.80
2023-05-21T06:26:31.249Z,17.80
2023-05-21T06:29:00.499Z,17.90
2023-05-21T06:31:33.170Z,17.90
2023-05-21T06:34:02.234Z,17.90
2023-05-21T06:36:32.679Z,17.90
2023-05-21T06:39:01.393Z,17.90
2023-05-21T06:41:30.296Z,17.90
2023-05-21T06:44:01.808Z,17.90
2023-05-21T06:47:02.058Z,17.90
2023-05-21T06:49:33.194Z,17.90
2023-05-21T06:52:03.306Z,17.90
2023-05-21T06:54:32.256Z,17.90
2023-05-21T06:57:02.558Z,17.90
2023-05-21T06:59:32.725Z,17.90
2023-05-21T07:02:04.471Z,18.00
2023-05-21T07:04:35.261Z,17.90
2023-05-21T07:07:05.647Z,18.00
2023-05-21T07:09:34.804Z,18.00
2023-05-21T07:12:03.331Z,18.00
2023-05-21T07:14:31.764Z,18.00
2023-05-21T07:17:00.620Z,18.00
2023-05-21T07:19:29.332Z,18.10
2023-05-21T07:21:58.632Z,18.10
2023-05-21T07:24:28.572Z,18.10
2023-05-21T07:26:56.967Z,18.10
2023-05-21T07:29:25.493Z,18.10
2023-05-21T07:31:53.970Z,18.20
2023-05-21T07:34:26.221Z,18.10
2023-05-21T07:36:54.809Z,18.20
2023-05-21T07:39:23.496Z,18.20
2023-05-21T07:41:53.243Z,18.30
2023-05-21T07:44:22.219Z,18.30
2023-05-21T07:46:50.710Z,18.30
2023-05-21T07:49:19.252Z,18.30
2023-05-21T07:51:51.235Z,18.30
2023-05-21T07:54:21.128Z,18.40
2023-05-21T07:56:49.924Z,18.40
2023-05-21T07:59:39.628Z,18.40
2023-05-21T08:02:09.186Z,18.40
2023-05-21T08:04:41.015Z,18.40
2023-05-21T08:07:12.854Z,18.50
2023-05-21T08:09:41.367Z,18.50
2023-05-21T08:12:14.442Z,18.40
2023-05-21T08:14:44.529Z,18.50
2023-05-21T08:17:14.771Z,18.50
2023-05-21T08:19:43.262Z,18.50
2023-05-21T08:22:12.375Z,18.50
2023-05-21T08:24:44.720Z,18.60
2023-05-21T08:27:13.123Z,18.60
2023-05-21T08:29:42.340Z,18.60
2023-05-21T08:32:12.587Z,18.60
2023-05-21T08:34:41.117Z,18.70
2023-05-21T08:37:34.805Z,18.70
2023-05-21T08:40:13.350Z,18.70
2023-05-21T08:42:49.120Z,18.70
2023-05-21T08:45:24.534Z,18.80
2023-05-21T08:47:58.125Z,18.80
2023-05-21T08:50:29.648Z,18.80
2023-05-21T08:53:05.652Z,18.90
2023-05-21T08:55:43.496Z,18.90
2023-05-21T08:58:13.740Z,18.90
2023-05-21T09:00:43.755Z,18.90
2023-05-21T09:03:15.861Z,18.90
2023-05-21T09:05:46.858Z,18.90
2023-05-21T09:08:19.386Z,19.00
2023-05-21T09:10:55.344Z,19.00
2023-05-21T09:13:30.068Z,19.00
2023-05-21T09:15:58.793Z,19.00
2023-05-21T09:18:28.743Z,19.00
2023-05-21T09:21:26.696Z,19.00
2023-05-21T09:23:59.962Z,19.00
2023-05-21T09:26:28.776Z,19.00
2023-05-21T09:29:01.931Z,19.00
2023-05-21T09:31:32.992Z,19.10
2023-05-21T09:34:03.997Z,19.00
2023-05-21T09:36:34.758Z,19.10
2023-05-21T09:39:03.450Z,19.10
2023-05-21T09:41:37.021Z,19.10
2023-05-21T09:44:06.610Z,19.20
2023-05-21T09:46:40.794Z,19.20
2023-05-21T09:49:26.348Z,19.20
2023-05-21T09:51:59.536Z,19.20
2023-05-21T09:54:32.954Z,19.20
2023-05-21T09:57:02.543Z,19.30
2023-05-21T09:59:37.872Z,19.30
2023-05-21T10:02:18.934Z,19.30
2023-05-21T10:04:51.062Z,19.30
2023-05-21T10:07:21.783Z,19.30
2023-05-21T10:09:51.333Z,19.30
2023-05-21T10:12:21.003Z,19.30
2023-05-21T10:14:55.450Z,19.40
2023-05-21T10:17:24.967Z,19.40
2023-05-21T10:19:56.816Z,19.40
2023-05-21T10:22:28.655Z,19.40
2023-05-21T10:24:57.818Z,19.50
2023-05-21T10:27:26.435Z,19.50
2023-05-21T10:29:55.635Z,19.50
2023-05-21T10:32:25.225Z,19.50
2023-05-21T10:34:55.807Z,19.50
2023-05-21T10:37:26.655Z,19.50
2023-05-21T10:39:55.793Z,19.50
2023-05-21T10:42:46.635Z,19.50
2023-05-21T10:45:25.198Z,19.50
2023-05-21T10:48:19.834Z,19.50
2023-05-21T10:51:17.861Z,19.50
2023-05-21T10:54:05.559Z,19.50
2023-05-21T10:56:40.250Z,19.50
2023-05-21T10:59:21.817Z,19.50
2023-05-21T11:01:52.902Z,19.50
2023-05-21T11:04:24.568Z,19.50
2023-05-21T11:06:54.672Z,19.50
2023-05-21T11:09:23.162Z,19.60
2023-05-21T11:11:52.764Z,19.60
2023-05-21T11:14:32.859Z,19.60
2023-05-21T11:17:01.537Z,19.60
2023-05-21T11:19:40.615Z,19.60
2023-05-21T11:22:21.413Z,19.60
2023-05-21T11:24:51.290Z,19.70
2023-05-21T11:27:37.392Z,19.70
2023-05-21T11:30:08.126Z,19.80
2023-05-21T11:32:40.130Z,19.60
2023-05-21T11:35:09.222Z,19.90
2023-05-21T11:37:41.780Z,19.90
2023-05-21T11:40:26.196Z,19.90
2023-05-21T11:42:55.889Z,19.90
2023-05-21T11:45:28.992Z,20.00
2023-05-21T11:47:58.615Z,19.90
2023-05-21T11:50:27.400Z,20.00
2023-05-21T11:52:59.909Z,20.00
2023-05-21T11:55:28.926Z,20.00
2023-05-21T11:57:57.568Z,20.10
2023-05-21T12:00:26.048Z,20.20
2023-05-21T12:02:55.975Z,20.20
2023-05-21T12:05:27.209Z,20.20
2023-05-21T12:07:58.465Z,20.30
2023-05-21T12:10:26.908Z,20.30
2023-05-21T12:12:57.352Z,20.30
2023-05-21T12:15:28.152Z,20.40
2023-05-21T12:17:57.241Z,20.40
2023-05-21T12:20:29.001Z,20.50
2023-05-21T12:23:00.866Z,20.50
2023-05-21T12:25:30.539Z,20.60
2023-05-21T12:28:01.626Z,20.60
2023-05-21T12:30:30.410Z,20.60
2023-05-21T12:33:02.361Z,20.70
2023-05-21T12:35:32.606Z,20.80
2023-05-21T12:38:04.298Z,20.80
2023-05-21T12:40:37.486Z,20.90
2023-05-21T12:43:07.402Z,20.90
2023-05-21T12:45:37.164Z,21.00
2023-05-21T12:48:05.966Z,21.00
2023-05-21T12:50:35.899Z,21.10
2023-05-21T12:53:09.809Z,21.10
2023-05-21T12:55:38.240Z,21.10
2023-05-21T12:58:09.253Z,21.10
2023-05-21T13:00:38.667Z,21.20
2023-05-21T13:03:07.475Z,21.20
2023-05-21T13:05:36.569Z,21.30
2023-05-21T13:08:06.651Z,21.30
2023-05-21T13:10:35.634Z,21.40
2023-05-21T13:13:04.105Z,21.40
2023-05-21T13:15:33.026Z,21.50
2023-05-21T13:18:01.844Z,21.50
2023-05-21T13:20:30.541Z,21.60
2023-05-21T13:22:59.135Z,21.70
2023-05-21T13:25:29.743Z,21.70
2023-05-21T13:27:58.976Z,21.70
2023-05-21T13:30:27.390Z,21.80
2023-05-21T13:32:56.177Z,21.80
2023-05-21T13:35:24.875Z,21.80
2023-05-21T13:37:53.498Z,21.90
2023-05-21T13:40:22.152Z,21.90
2023-05-21T13:42:51.938Z,22.10
2023-05-21T13:45:21.976Z,22.10
2023-05-21T13:47:50.465Z,22.10
2023-05-21T13:50:18.982Z,22.20
2023-05-21T13:52:47.421Z,22.30
2023-05-21T13:55:16.889Z,22.30
2023-05-21T13:57:46.068Z,22.50
2023-05-21T14:00:16.696Z,22.50
2023-05-21T14:02:45.391Z,22.60
2023-05-21T14:05:14.463Z,22.60
2023-05-21T14:07:43.106Z,22.70
2023-05-21T14:10:12.342Z,22.70
2023-05-21T14:12:41.049Z,22.80
2023-05-21T14:15:10.736Z,22.80
2023-05-21T14:17:42.499Z,22.90
2023-05-21T14:20:11.899Z,22.90
2023-05-21T14:22:40.383Z,23.00
2023-05-21T14:25:09.161Z,23.10
2023-05-21T14:27:38.839Z,23.10
2023-05-21T14:30:08.457Z,23.10
2023-05-21T14:32:36.893Z,23.20
2023-05-21T14:35:07.814Z,23.30
2023-05-21T14:37:36.345Z,23.30
2023-05-21T14:40:07.804Z,23.40
2023-05-21T14:42:36.558Z,23.40
2023-05-21T14:45:18.028Z,23.50
2023-05-21T14:47:48.394Z,23.50
2023-05-21T14:50:19.221Z,23.60
2023-05-21T14:52:47.731Z,23.70
2023-05-21T14:55:18.451Z,23.70
2023-05-21T14:57:46.771Z,23.80
2023-05-21T15:00:15.872Z,24.00
2023-05-21T15:02:44.432Z,24.10
2023-05-21T15:05:12.975Z,24.30
2023-05-21T15:07:42.768Z,24.40
2023-05-21T15:10:11.620Z,24.60
2023-05-21T15:12:41.106Z,24.80
2023-05-21T15:15:10.226Z,25.00
2023-05-21T15:17:38.788Z,25.30
2023-05-21T15:20:09.415Z,25.50
2023-05-21T15:22:38.295Z,25.70
2023-05-21T15:25:08.831Z,26.00
2023-05-21T15:27:37.218Z,26.30
2023-05-21T15:30:06.504Z,26.60
2023-05-21T15:32:34.840Z,26.90
2023-05-21T15:35:03.281Z,27.30
2023-05-21T15:37:33.086Z,27.80
2023-05-21T15:40:01.704Z,28.20
2023-05-21T15:42:31.962Z,28.50
2023-05-21T15:45:00.483Z,28.70
2023-05-21T15:47:28.903Z,28.90
2023-05-21T15:49:58.859Z,28.90
2023-05-21T15:52:27.373Z,28.90
2023-05-21T15:54:55.987Z,28.70
2023-05-21T15:57:24.365Z,28.50
2023-05-21T15:59:54.195Z,28.30
2023-05-21T16:02:22.557Z,28.00
2023-05-21T16:04:52.253Z,27.70
2023-05-21T16:07:21.078Z,27.40
2023-05-21T16:09:49.495Z,27.20
2023-05-21T16:12:18.069Z,26.90
2023-05-21T16:14:48.451Z,26.70
2023-05-21T16:17:18.312Z,26.60
2023-05-21T16:19:47.479Z,26.50
2023-05-21T16:22:16.454Z,26.50
2023-05-21T16:24:44.826Z,26.50
2023-05-21T16:27:13.146Z,26.50
2023-05-21T16:29:41.739Z,26.50
2023-05-21T16:32:12.990Z,26.50
2023-05-21T16:34:43.028Z,26.50
2023-05-21T16:37:11.444Z,26.50
2023-05-21T16:39:39.854Z,26.50
2023-05-21T16:42:08.281Z,26.40
2023-05-21T16:44:38.080Z,26.30
2023-05-21T16:47:06.756Z,26.20
2023-05-21T16:49:35.323Z,26.10
2023-05-21T16:52:05.480Z,26.00
2023-05-21T16:54:35.102Z,25.90
2023-05-21T16:57:03.486Z,25.80
2023-05-21T16:59:31.899Z,25.70
2023-05-21T17:02:00.539Z,25.60
2023-05-21T17:04:29.801Z,25.50
2023-05-21T17:06:58.416Z,25.30
2023-05-21T17:09:28.244Z,25.30
2023-05-21T17:11:56.686Z,25.10
2023-05-21T17:14:33.703Z,25.10
2023-05-21T17:17:02.624Z,25.00
2023-05-21T17:19:31.130Z,24.90
2023-05-21T17:22:00.853Z,24.90
2023-05-21T17:24:30.896Z,24.80
2023-05-21T17:26:59.449Z,24.80
2023-05-21T17:29:28.024Z,24.70
2023-05-21T17:31:56.731Z,24.60
2023-05-21T17:34:29.585Z,24.60
2023-05-21T17:36:59.757Z,24.50
2023-05-21T17:39:28.353Z,24.50
2023-05-21T17:41:58.681Z,24.40
2023-05-21T17:44:27.083Z,24.40
2023-05-21T17:46:56.440Z,24.40
2023-05-21T17:49:25.210Z,24.30
2023-05-21T17:51:53.985Z,24.30
2023-05-21T17:54:22.478Z,24.20
2023-05-21T17:56:50.866Z,24.20
2023-05-21T17:59:21.290Z,24.20
2023-05-21T18:01:49.666Z,24.20
2023-05-21T18:04:18.346Z,24.10
2023-05-21T18:06:46.871Z,24.10
2023-05-21T18:09:15.539Z,24.00
2023-05-21T18:11:44.836Z,24.00
2023-05-21T18:14:13.407Z,24.00
2023-05-21T18:16:43.245Z,23.90
2023-05-21T18:19:11.837Z,23.90
2023-05-21T18:21:40.713Z,23.80
2023-05-21T18:24:09.849Z,23.70
2023-05-21T18:26:38.404Z,23.70
2023-05-21T18:29:06.805Z,23.70
2023-05-21T18:31:35.236Z,23.70
2023-05-21T18:34:05.178Z,23.70
2023-05-21T18:36:38.850Z,23.60
2023-05-21T18:39:07.921Z,23.60
2023-05-21T18:41:37.415Z,23.60
2023-05-21T18:44:07.027Z,23.60
2023-05-21T18:46:35.467Z,23.60
2023-05-21T18:49:05.971Z,23.50
2023-05-21T18:51:34.392Z,23.50
2023-05-21T18:54:02.720Z,23.50
2023-05-21T18:56:31.086Z,23.50
2023-05-21T18:58:59.671Z,23.50
2023-05-21T19:01:28.265Z,23.40
2023-05-21T19:03:56.754Z,23.40
2023-05-21T19:06:27.790Z,23.40
2023-05-21T19:08:56.317Z,23.40
2023-05-21T19:11:27.540Z,23.40
2023-05-21T19:13:55.906Z,23.40
2023-05-21T19:16:24.379Z,23.30
2023-05-21T19:18:52.865Z,23.30
2023-05-21T19:21:21.443Z,23.30
2023-05-21T19:23:53.693Z,23.30
2023-05-21T19:26:22.962Z,23.30
2023-05-21T19:28:53.926Z,23.30
2023-05-21T19:31:23.239Z,23.30
2023-05-21T19:33:52.444Z,23.30
2023-05-21T19:36:21.984Z,23.30
2023-05-21T19:38:52.241Z,23.30
2023-05-21T19:41:22.080Z,23.20
2023-05-21T19:43:51.161Z,23.20
2023-05-21T19:46:20.653Z,23.20
2023-05-21T19:48:49.581Z,23.20
2023-05-21T19:51:18.198Z,23.20
2023-05-21T19:53:46.576Z,23.10
2023-05-21T19:56:16.797Z,23.10
2023-05-21T19:58:48.041Z,23.10
2023-05-21T20:01:17.749Z,23.10
2023-05-21T20:03:46.409Z,23.10
2023-05-21T20:06:16.928Z,23.00
2023-05-21T20:08:45.840Z,23.00
2023-05-21T20:11:15.717Z,23.00
2023-05-21T20:13:48.560Z,23.00
2023-05-21T20:16:18.344Z,22.90
2023-05-21T20:18:47.377Z,22.90
2023-05-21T20:21:17.472Z,22.90
2023-05-21T20:23:49.499Z,22.90
2023-05-21T20:26:19.987Z,22.80
2023-05-21T20:28:48.457Z,22.80
2023-05-21T20:31:17.045Z,22.80
2023-05-21T20:33:46.375Z,22.80
2023-05-21T20:36:15.507Z,22.70
2023-05-21T20:38:45.711Z,22.70
2023-05-21T20:41:14.819Z,22.70
2023-05-21T20:43:45.505Z,22.70
2023-05-21T20:46:14.088Z,22.60
2023-05-21T20:48:43.621Z,22.60
2023-05-21T20:51:12.237Z,22.60
2023-05-21T20:53:40.861Z,22.60
2023-05-21T20:56:11.815Z,22.60
2023-05-21T20:58:40.539Z,22.50
2023-05-21T21:01:10.734Z,22.50
2023-05-21T21:03:41.423Z,22.50
2023-05-21T21:06:10.013Z,22.50
2023-05-21T21:08:40.388Z,22.50
2023-05-21T21:11:09.160Z,22.50
2023-05-21T21:13:37.795Z,22.50
2023-05-21T21:16:07.154Z,22.50
2023-05-21T21:18:37.181Z,22.40
2023-05-21T21:21:06.603Z,22.40
2023-05-21T21:23:35.090Z,22.40
2023-05-21T21:26:03.512Z,22.40
2023-05-21T21:28:31.985Z,22.40
2023-05-21T21:31:00.405Z,22.40
2023-05-21T21:33:28.820Z,22.40
2023-05-21T21:35:58.577Z,22.40
2023-05-21T21:38:26.879Z,22.40
2023-05-21T21:40:55.551Z,22.40
2023-05-21T21:43:23.946Z,22.30
2023-05-21T21:45:52.477Z,22.30
2023-05-21T21:48:20.927Z,22.30
2023-05-21T21:50:49.315Z,22.30
2023-05-21T21:53:19.010Z,22.30
2023-05-21T21:55:47.420Z,22.20
2023-05-21T21:58:16.071Z,22.20
2023-05-21T22:00:44.487Z,22.20
2023-05-21T22:03:14.723Z,22.10
2023-05-21T22:05:43.735Z,22.10
2023-05-21T22:08:12.069Z,22.10
2023-05-21T22:10:41.807Z,22.10
2023-05-21T22:13:10.135Z,22.00
2023-05-21T22:15:38.673Z,22.00
2023-05-21T22:18:09.611Z,22.00
2023-05-21T22:20:38.419Z,22.00
2023-05-21T22:23:07.453Z,22.00
2023-05-21T22:25:36.011Z,22.00
2023-05-21T22:28:06.396Z,22.00
2023-05-21T22:30:35.072Z,22.00
2023-05-21T22:33:03.688Z,22.00
2023-05-21T22:35:32.398Z,22.00
2023-05-21T22:38:02.389Z,22.00
2023-05-21T22:40:30.876Z,22.00
2023-05-21T22:42:59.378Z,22.00
2023-05-21T22:45:29.269Z,22.00
2023-05-21T22:48:01.672Z,22.00
2023-05-21T22:50:32.965Z,22.00
2023-05-21T22:53:01.563Z,22.00
2023-05-21T22:55:29.893Z,22.00
2023-05-21T22:57:58.230Z,22.00
2023-05-21T23:00:28.126Z,22.00
2023-05-21T23:02:56.670Z,22.00
2023-05-21T23:05:25.165Z,22.00
2023-05-21T23:07:53.785Z,22.00
2023-05-21T23:10:22.396Z,22.00
2023-05-21T23:12:50.775Z,22.00
2023-05-21T23:15:19.130Z,22.00
2023-05-21T23:17:48.928Z,22.00
2023-05-21T23:20:17.484Z,22.00
2023-05-21T23:22:45.828Z,22.00
2023-05-21T23:25:14.215Z,22.00
2023-05-21T23:27:42.652Z,22.00
2023-05-21T23:30:11.900Z,22.00
2023-05-21T23:32:40.483Z,22.00
2023-05-21T23:35:11.748Z,22.00
2023-05-21T23:37:40.330Z,22.20
2023-05-21T23:40:10.102Z,22.00
2023-05-21T23:42:38.676Z,22.00
2023-05-21T23:45:08.069Z,22.00
2023-05-21T23:47:36.487Z,22.00
2023-05-21T23:50:05.380Z,22.00
2023-05-21T23:52:35.294Z,22.00
2023-05-21T23:55:03.761Z,22.00
2023-05-21T23:57:32.095Z,22.00
